Terminal Aerodrome Forecast
Issued by NWS Central Illinois

Home | Current Version | Previous Version | Text Only | Print | Product List | Glossary On
Versions: 1 2 3 4 5 6 7 8 9 10 11 12 13
000
FTUS43 KILX 041120
TAFSPI
TAF
KSPI 041120Z 0412/0512 VRB04KT P6SM SCT100 BKN250
     FM042100 VRB04KT P6SM BKN100
     FM050600 10003KT P6SM SCT060 BKN100=

USA.gov is the U.S. government's official web portal to all federal, state and local government web resources and services.